Time;durP1;ratioP1;P1;durP2;ratioP2;P2;SDS_P1;SDS_P2;PMS_P1;PMS_P2;Temp;Humidity;BMP_temperature;BMP_pressure;BME280_temperature;BME280_humidity;BME280_pressure;Samples;Min_cycle;Max_cycle;Signal;HPM_P1;HPM_P2
2022/01/21 00:01:03;;;;;;;11.95;2.08;;;;;;;2.72;100.00;103369.69;5093694;28;20563;-52
2022/01/21 00:03:29;;;;;;;15.10;2.47;;;;;;;2.23;100.00;103300.13;5093682;28;20028;-50
2022/01/21 00:05:54;;;;;;;10.90;2.47;;;;;;;2.51;100.00;103374.91;5092029;28;20034;-53
2022/01/21 00:08:19;;;;;;;16.88;2.95;;;;;;;2.37;100.00;103368.25;5057703;28;20127;-51
2022/01/21 00:10:45;;;;;;;16.23;2.72;;;;;;;2.27;100.00;103379.13;5061087;28;20024;-53
2022/01/21 00:13:52;;;;;;;20.65;3.35;;;;;;;1.78;100.00;103293.03;5093604;28;20451;-51
2022/01/21 00:16:26;;;;;;;18.23;3.10;;;;;;;1.68;100.00;103299.56;5087669;28;20039;-54
2022/01/21 00:18:57;;;;;;;15.55;3.13;;;;;;;1.99;100.00;103365.75;5089603;28;20473;-54
2022/01/21 00:32:20;;;;;;;17.33;2.63;;;;;;;1.72;100.00;103349.91;5058061;28;20458;-54
2022/01/21 00:34:45;;;;;;;19.05;2.40;;;;;;;1.85;100.00;103367.78;5072861;28;20032;-49
2022/01/21 00:37:11;;;;;;;12.93;2.30;;;;;;;1.94;100.00;103362.97;5054995;28;20117;-53
2022/01/21 00:39:37;;;;;;;10.07;2.42;;;;;;;1.93;100.00;103355.09;5055107;28;20035;-50
2022/01/21 00:42:12;;;;;;;12.45;3.08;;;;;;;1.31;100.00;103246.88;5072858;28;20085;-54
2022/01/21 00:44:37;;;;;;;22.15;2.50;;;;;;;1.51;100.00;103297.06;5072698;28;20035;-53
2022/01/21 00:47:03;;;;;;;11.13;2.20;;;;;;;1.88;100.00;103369.63;5072691;28;20032;-50
2022/01/21 00:49:29;;;;;;;12.70;1.95;;;;;;;1.88;100.00;103372.22;5072480;28;20526;-47
2022/01/21 00:51:54;;;;;;;17.67;3.03;;;;;;;1.46;100.00;103294.22;5072385;28;20032;-51
2022/01/21 00:54:19;;;;;;;13.10;2.10;;;;;;;1.77;100.00;103356.19;5076516;28;20497;-53
2022/01/21 00:56:45;;;;;;;11.00;1.90;;;;;;;1.40;100.00;103281.00;5092541;28;20399;-51
2022/01/21 00:59:10;;;;;;;12.32;2.50;;;;;;;1.67;100.00;103336.72;5074494;28;20131;-50
2022/01/21 01:01:36;;;;;;;15.15;2.92;;;;;;;1.77;100.00;103370.88;5074690;28;20047;-51
2022/01/21 01:04:02;;;;;;;11.65;2.05;;;;;;;1.39;100.00;103309.47;5092412;28;20056;-53
2022/01/21 01:06:28;;;;;;;20.13;2.72;;;;;;;1.80;100.00;103390.06;5074414;28;20024;-52
2022/01/21 01:08:54;;;;;;;18.58;3.75;;;;;;;1.50;100.00;103295.25;5092662;28;20085;-54
2022/01/21 01:11:30;;;;;;;7.68;1.88;;;;;;;1.91;100.00;103357.66;5074609;28;20036;-57
2022/01/21 01:22:10;;;;;;;10.82;2.13;;;;;;;1.72;100.00;103310.06;5092301;28;20042;-54
2022/01/21 01:27:37;;;;;;;17.80;3.10;;;;;;;1.73;100.00;103298.84;5092221;28;20047;-51
2022/01/21 01:30:00;;;;;;;13.02;2.15;;;;;;;1.71;100.00;103291.00;5076725;28;20631;-54
2022/01/21 01:32:28;;;;;;;9.63;2.10;;;;;;;2.03;100.00;103355.59;5074425;28;20020;-50
2022/01/21 01:34:54;;;;;;;12.82;1.98;;;;;;;2.03;100.00;103368.56;5074093;28;20032;-50
2022/01/21 01:40:31;;;;;;;20.65;2.22;;;;;;;1.82;100.00;103296.63;5029767;28;20381;-54
2022/01/21 01:50:53;;;;;;;11.18;2.00;;;;;;;2.12;100.00;103282.34;5074614;28;20031;-55
2022/01/21 01:53:23;;;;;;;13.07;2.10;;;;;;;1.91;100.00;103263.25;5074133;28;20021;-49
2022/01/21 01:55:49;;;;;;;10.55;1.80;;;;;;;2.21;100.00;103332.09;5073907;28;20032;-54
2022/01/21 01:58:14;;;;;;;13.00;2.00;;;;;;;2.28;100.00;103365.28;5073824;28;20036;-51
2022/01/21 02:00:41;;;;;;;8.60;2.20;;;;;;;1.97;100.00;103326.75;5074052;28;20390;-54
2022/01/21 02:03:11;;;;;;;9.98;2.05;;;;;;;0.64;100.00;103126.34;5073899;28;20028;-51
2022/01/21 02:05:37;;;;;;;13.10;2.03;;;;;;;1.91;100.00;103352.47;5092115;28;20503;-56
2022/01/21 02:08:03;;;;;;;14.20;1.98;;;;;;;1.83;100.00;103347.75;5074166;28;20047;-51
2022/01/21 02:10:28;;;;;;;20.15;2.28;;;;;;;1.88;100.00;103352.34;5095303;28;20107;-54
2022/01/21 02:13:03;;;;;;;8.15;1.73;;;;;;;1.38;100.00;103274.84;5095864;28;20123;-54
2022/01/21 02:15:29;;;;;;;7.20;1.70;;;;;;;1.73;100.00;103363.75;5079188;28;20039;-50
2022/01/21 02:23:24;;;;;;;14.73;1.90;;;;;;;1.32;100.00;103334.25;5095743;28;20093;-53
2022/01/21 02:25:50;;;;;;;11.40;2.05;;;;;;;1.43;100.00;103366.75;5095705;28;20467;-54
2022/01/21 02:28:16;;;;;;;15.32;1.60;;;;;;;1.38;100.00;103375.16;5095673;28;20051;-56
2022/01/21 02:30:52;;;;;;;13.57;2.20;;;;;;;1.32;100.00;103364.50;5095670;28;20047;-56
2022/01/21 02:33:18;;;;;;;15.50;1.70;;;;;;;0.98;100.00;103321.47;5077412;28;20024;-54
2022/01/21 02:35:43;;;;;;;7.78;1.88;;;;;;;1.28;100.00;103384.25;5077304;28;20406;-50
2022/01/21 02:38:08;;;;;;;9.68;2.05;;;;;;;1.19;100.00;103351.81;5095328;28;20032;-50
2022/01/21 02:40:34;;;;;;;10.65;1.92;;;;;;;1.24;100.00;103358.09;5077360;28;20032;-54
2022/01/21 02:42:59;;;;;;;12.00;1.40;;;;;;;1.22;100.00;103359.75;5095455;28;20040;-51
2022/01/21 02:45:24;;;;;;;10.73;1.73;;;;;;;1.25;100.00;103365.06;5095292;28;20040;-54
2022/01/21 02:47:50;;;;;;;10.73;1.70;;;;;;;1.34;100.00;103360.28;5095251;28;20048;-50
2022/01/21 02:50:16;;;;;;;7.80;2.15;;;;;;;1.10;100.00;103292.63;5095103;28;20040;-49
2022/01/21 02:52:54;;;;;;;9.32;1.80;;;;;;;1.49;100.00;103329.84;5095086;28;20028;-50
2022/01/21 02:55:19;;;;;;;10.98;1.65;;;;;;;1.55;100.00;103318.00;5095467;28;20040;-53
2022/01/21 02:57:45;;;;;;;11.75;1.55;;;;;;;1.42;100.00;103270.69;5095135;28;20113;-53
2022/01/21 03:00:10;;;;;;;11.18;1.92;;;;;;;1.92;100.00;103342.97;5094976;28;20452;-53
2022/01/21 03:02:36;;;;;;;11.57;2.05;;;;;;;1.87;100.00;103334.97;5076958;28;20039;-52
2022/01/21 03:05:10;;;;;;;10.35;1.80;;;;;;;1.44;100.00;103267.34;5094817;28;20072;-54
2022/01/21 03:07:36;;;;;;;13.30;1.55;;;;;;;1.39;100.00;103268.84;5076987;28;20446;-54
2022/01/21 03:10:03;;;;;;;10.32;1.77;;;;;;;1.32;100.00;103265.91;5094911;28;20115;-52
2022/01/21 03:12:29;;;;;;;9.93;1.85;;;;;;;1.68;100.00;103329.81;5076734;28;20028;-55
2022/01/21 03:14:54;;;;;;;9.77;1.83;;;;;;;1.83;100.00;103347.75;5094807;28;20081;-55
2022/01/21 03:17:19;;;;;;;11.93;1.65;;;;;;;1.44;100.00;103282.00;5094748;28;20028;-52
2022/01/21 03:19:45;;;;;;;9.07;2.03;;;;;;;1.27;100.00;103263.13;5094246;28;20036;-52
2022/01/21 03:22:12;;;;;;;8.52;1.30;;;;;;;1.71;100.00;103350.72;5094467;28;20089;-50
2022/01/21 03:24:37;;;;;;;8.75;1.50;;;;;;;1.36;100.00;103284.28;5086097;28;20048;-53
2022/01/21 03:27:03;;;;;;;10.18;1.70;;;;;;;1.75;100.00;103372.53;5074346;28;20033;-49
2022/01/21 03:29:28;;;;;;;7.82;1.58;;;;;;;1.70;100.00;103361.91;5074225;28;20033;-52
2022/01/21 03:31:54;;;;;;;11.35;1.65;;;;;;;1.78;100.00;103359.66;5074195;28;20405;-47
2022/01/21 03:34:19;;;;;;;9.35;2.03;;;;;;;1.70;100.00;103333.34;5074034;28;20032;-47
2022/01/21 03:36:44;;;;;;;14.15;1.50;;;;;;;1.79;100.00;103349.34;5073960;28;20486;-49
2022/01/21 03:39:10;;;;;;;13.63;2.40;;;;;;;1.75;100.00;103352.66;5074089;28;20085;-53
2022/01/21 03:41:35;;;;;;;12.07;1.95;;;;;;;1.33;100.00;103280.66;5073975;28;20033;-55
2022/01/21 03:44:01;;;;;;;10.50;1.60;;;;;;;1.58;100.00;103336.31;5056001;28;20080;-49
2022/01/21 03:46:26;;;;;;;9.40;1.50;;;;;;;1.70;100.00;103360.22;5073867;28;20024;-52
2022/01/21 03:48:51;;;;;;;13.00;1.88;;;;;;;1.84;100.00;103352.16;5073753;28;20044;-48
2022/01/21 03:51:19;;;;;;;7.82;1.85;;;;;;;1.97;100.00;103363.13;5056241;28;20039;-53
2022/01/21 03:53:46;;;;;;;11.02;1.48;;;;;;;1.67;100.00;103278.69;5073675;28;20403;-51
2022/01/21 03:56:15;;;;;;;11.30;1.73;;;;;;;1.81;100.00;103300.94;5073786;28;20036;-53
2022/01/21 03:58:40;;;;;;;16.92;2.38;;;;;;;1.71;100.00;103298.78;5073742;28;20054;-52
2022/01/21 04:01:07;;;;;;;13.98;1.85;;;;;;;2.04;100.00;103366.88;5073569;28;20025;-54
2022/01/21 04:03:32;;;;;;;10.32;1.80;;;;;;;1.64;100.00;103315.81;5055497;28;20470;-52
2022/01/21 04:05:58;;;;;;;6.80;1.70;;;;;;;1.93;100.00;103388.88;5073658;28;20112;-51
2022/01/21 04:08:23;;;;;;;9.50;1.35;;;;;;;1.74;100.00;103352.56;5073557;28;20577;-51
2022/01/21 04:10:49;;;;;;;15.35;2.30;;;;;;;1.41;100.00;103316.50;5073240;28;20032;-49
2022/01/21 04:13:18;;;;;;;11.38;2.40;;;;;;;1.28;100.00;103314.22;5073112;28;20064;-53
2022/01/21 04:15:47;;;;;;;15.20;2.38;;;;;;;1.47;100.00;103353.13;5055619;28;20115;-54
2022/01/21 04:18:15;;;;;;;11.75;1.40;;;;;;;1.12;100.00;103303.94;5073057;28;20906;-54
2022/01/21 04:20:41;;;;;;;5.70;1.35;;;;;;;1.47;100.00;103368.69;5073308;28;20032;-52
2022/01/21 04:23:07;;;;;;;13.13;1.52;;;;;;;0.96;100.00;103284.19;5073105;28;20480;-54
2022/01/21 04:25:32;;;;;;;8.60;1.20;;;;;;;1.47;100.00;103375.59;5073035;28;20078;-55
2022/01/21 04:27:59;;;;;;;9.07;1.75;;;;;;;1.06;100.00;103294.19;5072908;28;20036;-53
2022/01/21 04:30:24;;;;;;;11.52;1.92;;;;;;;0.96;100.00;103281.59;5073453;28;20169;-50
2022/01/21 04:32:49;;;;;;;7.28;1.65;;;;;;;1.49;100.00;103389.53;5054352;28;20123;-50
2022/01/21 04:35:15;;;;;;;15.55;2.13;;;;;;;1.02;100.00;103301.78;5054259;28;20472;-52
2022/01/21 04:37:48;;;;;;;12.88;1.98;;;;;;;1.44;100.00;103367.66;5072453;28;20032;-47
2022/01/21 04:40:16;;;;;;;16.35;1.63;;;;;;;1.09;100.00;103311.59;5072871;28;20032;-50
2022/01/21 04:48:10;;;;;;;15.50;1.50;;;;;;;1.32;100.00;103377.47;5072630;28;20052;-51
2022/01/21 04:50:42;;;;;;;10.18;1.83;;;;;;;1.27;100.00;103373.81;5072464;28;20036;-51
2022/01/21 04:53:08;;;;;;;13.82;2.20;;;;;;;1.16;100.00;103356.84;5055499;28;20392;-50
2022/01/21 04:55:34;;;;;;;12.35;1.75;;;;;;;0.77;100.00;103291.97;5072453;28;20113;-54
2022/01/21 04:57:59;;;;;;;8.60;1.60;;;;;;;1.19;100.00;103375.16;5072506;28;20048;-47
2022/01/21 05:00:25;;;;;;;8.70;1.63;;;;;;;1.17;100.00;103400.16;5054750;28;20439;-54
2022/01/21 05:02:50;;;;;;;7.90;1.55;;;;;;;1.13;100.00;103376.66;5072421;28;20037;-49
2022/01/21 05:05:16;;;;;;;12.65;2.00;;;;;;;1.03;100.00;103361.47;5054294;28;20040;-52
2022/01/21 05:07:42;;;;;;;9.75;1.65;;;;;;;0.96;100.00;103348.16;5072325;28;20112;-52
2022/01/21 05:10:08;;;;;;;10.30;1.45;;;;;;;0.72;100.00;103321.09;5054226;28;20035;-49
2022/01/21 05:12:34;;;;;;;11.45;1.92;;;;;;;0.48;100.00;103267.28;5072312;28;20468;-54
2022/01/21 05:17:26;;;;;;;8.95;1.80;;;;;;;0.95;100.00;103352.47;5072209;28;20044;-50
2022/01/21 05:19:52;;;;;;;7.88;1.60;;;;;;;0.99;100.00;103362.13;5072260;28;20075;-51
2022/01/21 05:22:18;;;;;;;10.68;1.88;;;;;;;0.95;100.00;103378.41;5054229;28;20032;-51
2022/01/21 05:24:43;;;;;;;10.20;1.70;;;;;;;0.82;100.00;103360.47;5073809;28;20040;-52
2022/01/21 05:27:11;;;;;;;10.40;2.33;;;;;;;0.41;100.00;103285.94;5083864;28;20025;-51
2022/01/21 05:29:37;;;;;;;7.07;1.63;;;;;;;0.88;100.00;103371.13;5072202;28;20064;-51
2022/01/21 05:32:04;;;;;;;10.15;1.50;;;;;;;0.89;100.00;103362.53;5072079;28;20071;-51
2022/01/21 05:34:29;;;;;;;11.43;1.50;;;;;;;0.98;100.00;103370.75;5071982;28;20033;-53
2022/01/21 05:36:55;;;;;;;9.63;2.17;;;;;;;0.71;100.00;103291.69;5054167;28;20431;-46
2022/01/21 05:39:21;;;;;;;11.38;2.17;;;;;;;1.23;100.00;103346.81;5071832;28;20036;-55
2022/01/21 05:41:50;;;;;;;13.52;1.80;;;;;;;1.78;100.00;103363.13;5054253;28;20035;-52
2022/01/21 05:46:22;;;;;;;15.63;2.22;;;;;;;0.85;100.00;103148.00;5088614;28;20028;-53
2022/01/21 05:47:04;;;;;;;8.10;2.10;;;;;;;2.12;100.00;103362.88;5081110;28;20039;-53
2022/01/21 05:49:31;;;;;;;9.90;1.52;;;;;;;1.76;100.00;103289.47;5096136;28;20031;-52
2022/01/21 05:52:04;;;;;;;12.35;1.77;;;;;;;1.95;100.00;103344.00;5078151;28;20172;-50
2022/01/21 05:54:30;;;;;;;10.50;1.60;;;;;;;1.88;100.00;103348.84;5079257;28;20024;-53
2022/01/21 05:56:55;;;;;;;14.60;2.08;;;;;;;1.83;100.00;103364.25;5095284;28;20055;-52
2022/01/21 05:59:21;;;;;;;8.30;1.67;;;;;;;1.67;100.00;103347.09;5096017;28;20043;-52
2022/01/21 06:01:46;;;;;;;10.77;1.73;;;;;;;1.50;100.00;103339.38;5095825;28;20070;-52
2022/01/21 06:04:12;;;;;;;14.27;1.90;;;;;;;1.54;100.00;103368.16;5077628;28;20471;-50
2022/01/21 06:06:38;;;;;;;7.88;1.88;;;;;;;1.41;100.00;103368.41;5077742;28;20447;-51
2022/01/21 06:09:04;;;;;;;18.00;2.30;;;;;;;1.29;100.00;103351.41;5095928;28;20038;-54
2022/01/21 06:11:30;;;;;;;9.00;1.50;;;;;;;1.17;100.00;103318.00;5061445;28;20064;-52
2022/01/21 06:13:55;;;;;;;9.55;1.70;;;;;;;1.41;100.00;103352.84;5095736;28;20070;-50
2022/01/21 06:16:23;;;;;;;13.90;2.00;;;;;;;1.73;100.00;103384.53;5095209;28;20032;-56
2022/01/21 06:18:48;;;;;;;13.15;2.17;;;;;;;1.37;100.00;103312.00;5077032;28;20032;-49
2022/01/21 06:21:14;;;;;;;14.73;2.13;;;;;;;1.97;100.00;103383.91;5077233;28;20043;-55
2022/01/21 06:23:39;;;;;;;13.70;2.47;;;;;;;1.54;100.00;103297.19;5095221;28;20032;-50
2022/01/21 06:26:05;;;;;;;14.25;2.33;;;;;;;2.11;100.00;103392.28;5095635;28;20084;-51
2022/01/21 06:28:30;;;;;;;13.30;2.17;;;;;;;1.23;100.00;103224.88;5095507;28;20036;-53
2022/01/21 06:30:56;;;;;;;20.77;2.38;;;;;;;1.81;100.00;103326.91;5095683;28;20028;-56
2022/01/21 06:33:22;;;;;;;10.00;1.67;;;;;;;1.63;100.00;103310.56;5072090;28;20111;-52
2022/01/21 06:35:50;;;;;;;14.35;2.40;;;;;;;1.94;100.00;103382.88;5095428;28;20039;-54
2022/01/21 06:38:16;;;;;;;13.55;2.80;;;;;;;1.97;100.00;103411.56;5076766;28;20067;-54
2022/01/21 06:40:41;;;;;;;9.25;2.25;;;;;;;1.93;100.00;103415.75;5095171;28;20474;-55
2022/01/21 06:43:07;;;;;;;14.88;2.83;;;;;;;1.92;100.00;103398.41;5095531;28;20111;-51
2022/01/21 06:45:32;;;;;;;8.50;2.30;;;;;;;1.42;100.00;103314.81;5094689;28;20039;-51
2022/01/21 06:48:02;;;;;;;12.65;2.80;;;;;;;1.91;100.00;103406.13;5076386;28;20111;-54
2022/01/21 06:50:29;;;;;;;11.18;2.80;;;;;;;1.43;100.00;103322.66;5095256;28;20038;-50
2022/01/21 06:52:55;;;;;;;14.80;2.65;;;;;;;1.45;100.00;103327.91;5077174;28;20033;-52
2022/01/21 06:55:20;;;;;;;13.05;2.70;;;;;;;1.35;100.00;103329.22;5079780;28;20105;-50
2022/01/21 06:57:45;;;;;;;19.77;2.38;;;;;;;1.00;100.00;103291.31;5074629;28;20094;-50
2022/01/21 07:00:13;;;;;;;21.70;2.92;;;;;;;1.38;100.00;103376.06;5075667;28;20584;-50
2022/01/21 07:02:39;;;;;;;14.07;3.03;;;;;;;1.23;100.00;103348.53;5076798;28;20036;-49
2022/01/21 07:05:05;;;;;;;19.02;2.65;;;;;;;1.11;100.00;103323.81;5084985;28;20038;-58
2022/01/21 07:07:31;;;;;;;18.15;2.80;;;;;;;1.53;100.00;103381.94;5094635;28;20042;-54
2022/01/21 07:09:56;;;;;;;15.45;2.90;;;;;;;1.22;100.00;103313.03;5094903;28;20063;-49
2022/01/21 07:12:22;;;;;;;26.15;3.03;;;;;;;1.50;100.00;103348.06;5086111;28;20538;-50
2022/01/21 07:14:47;;;;;;;22.23;2.67;;;;;;;1.73;100.00;103366.34;5074414;28;20093;-53
2022/01/21 07:17:13;;;;;;;14.82;2.13;;;;;;;1.46;100.00;103277.81;5074423;28;20033;-54
2022/01/21 07:19:38;;;;;;;14.43;3.28;;;;;;;1.88;100.00;103361.81;5074467;28;20154;-54
2022/01/21 07:22:04;;;;;;;19.33;3.25;;;;;;;1.56;100.00;103314.59;5074376;28;20029;-57
2022/01/21 07:24:29;;;;;;;19.35;2.53;;;;;;;2.07;100.00;103411.16;5074222;28;20044;-53
2022/01/21 07:26:55;;;;;;;22.58;2.63;;;;;;;2.06;100.00;103414.56;5074059;28;20035;-57
2022/01/21 07:29:20;;;;;;;13.15;2.33;;;;;;;2.06;100.00;103409.38;5092696;28;20028;-58
2022/01/21 07:31:46;;;;;;;17.02;2.58;;;;;;;2.09;100.00;103407.81;5094367;28;20032;-55
2022/01/21 07:34:16;;;;;;;12.50;2.90;;;;;;;2.14;100.00;103416.69;5087818;28;20111;-56
2022/01/21 07:36:42;;;;;;;14.80;2.50;;;;;;;1.64;100.00;103326.19;5084187;28;20111;-51
2022/01/21 07:39:07;;;;;;;20.98;3.83;;;;;;;2.14;100.00;103418.38;5094312;28;20059;-56
2022/01/21 07:41:33;;;;;;;13.98;4.00;;;;;;;1.64;100.00;103331.38;5076177;28;20024;-55
2022/01/21 07:43:58;;;;;;;12.50;3.33;;;;;;;2.18;100.00;103412.50;5094228;28;20483;-50
2022/01/21 07:46:25;;;;;;;16.98;3.63;;;;;;;2.27;100.00;103410.31;5075826;28;20532;-51
2022/01/21 07:48:51;;;;;;;20.52;3.45;;;;;;;2.37;100.00;103414.16;5094274;28;20039;-51
2022/01/21 07:51:17;;;;;;;17.70;2.83;;;;;;;2.33;100.00;103388.88;5074698;28;20032;-53
2022/01/21 07:53:42;;;;;;;14.68;2.60;;;;;;;2.57;100.00;103403.75;5069171;28;20044;-53
2022/01/21 07:56:08;;;;;;;11.75;2.40;;;;;;;2.65;100.00;103411.88;5093865;28;20595;-52
2022/01/21 07:58:33;;;;;;;14.57;2.25;;;;;;;2.68;100.00;103397.31;5091335;28;20060;-50
2022/01/21 08:00:58;;;;;;;18.02;2.90;;;;;;;2.94;100.00;103413.94;5084480;28;20040;-52
2022/01/21 08:03:24;;;;;;;15.13;4.18;;;;;;;2.61;100.00;103329.38;5073490;28;20036;-53
2022/01/21 08:05:51;;;;;;;14.85;3.00;;;;;;;2.81;100.00;103338.84;5088340;28;20032;-54
2022/01/21 08:08:16;;;;;;;12.02;2.72;;;;;;;3.34;100.00;103412.06;5088709;28;20470;-51
2022/01/21 08:10:42;;;;;;;12.95;2.38;;;;;;;3.43;100.00;103408.91;5047905;28;20114;-54
2022/01/21 08:13:07;;;;;;;18.73;3.30;;;;;;;3.53;100.00;103404.94;5082250;28;20031;-51
2022/01/21 08:15:33;;;;;;;17.23;2.25;;;;;;;3.49;100.00;103398.72;5092871;28;20040;-52
2022/01/21 08:17:58;;;;;;;20.95;2.28;;;;;;;3.62;100.00;103390.50;5074804;28;20490;-50
2022/01/21 08:20:24;;;;;;;14.48;1.83;;;;;;;3.81;100.00;103415.53;5093413;28;20039;-51
2022/01/21 08:22:49;;;;;;;12.85;2.30;;;;;;;3.94;100.00;103433.38;5093061;28;20020;-54
2022/01/21 08:25:14;;;;;;;12.73;2.08;;;;;;;3.47;100.00;103337.91;5093327;28;20417;-52
2022/01/21 08:27:40;;;;;;;15.23;2.17;;;;;;;3.96;100.00;103427.41;5075370;28;20422;-53
2022/01/21 08:30:06;;;;;;;14.88;2.35;;;;;;;4.10;100.00;103424.38;5092854;28;20024;-51
2022/01/21 08:32:32;;;;;;;17.48;3.10;;;;;;;4.22;100.00;103430.91;5093439;28;20093;-50
2022/01/21 08:34:57;;;;;;;16.83;3.22;;;;;;;3.88;100.00;103344.56;5075166;28;20032;-54
2022/01/21 08:37:23;;;;;;;14.32;1.95;;;;;;;4.35;100.00;103425.25;5074797;28;20038;-51
2022/01/21 08:39:48;;;;;;;15.65;1.95;;;;;;;3.86;100.00;103338.41;5093211;28;20399;-50
2022/01/21 08:42:14;;;;;;;13.82;3.17;;;;;;;4.26;100.00;103405.84;5093224;28;20467;-53
2022/01/21 08:44:39;;;;;;;12.93;2.28;;;;;;;4.39;100.00;103431.47;5092801;28;20036;-53
2022/01/21 08:47:05;;;;;;;14.20;2.53;;;;;;;4.06;100.00;103344.31;5093135;28;20067;-56
2022/01/21 08:49:30;;;;;;;17.33;2.95;;;;;;;4.60;100.00;103413.94;5074844;28;20029;-54
2022/01/21 08:51:57;;;;;;;20.95;2.80;;;;;;;4.51;100.00;103382.34;5093065;28;20399;-53
2022/01/21 08:54:24;;;;;;;17.83;2.60;;;;;;;4.48;100.00;103358.75;5092669;28;20040;-49
2022/01/21 08:56:51;;;;;;;12.18;3.25;;;;;;;4.82;100.00;103413.78;5090880;28;20028;-53
2022/01/21 08:59:17;;;;;;;10.52;1.90;;;;;;;4.88;100.00;103420.94;5091750;28;20070;-51
2022/01/21 09:01:48;;;;;;;13.63;2.50;;;;;;;4.98;100.00;103421.28;5091473;28;20064;-52
2022/01/21 09:04:14;;;;;;;17.33;2.95;;;;;;;4.81;100.00;103367.69;5091598;28;20145;-54
2022/01/21 09:06:39;;;;;;;13.75;2.42;;;;;;;5.09;100.00;103419.88;5073536;28;20146;-53
2022/01/21 09:09:05;;;;;;;13.55;2.30;;;;;;;5.18;100.00;103424.50;5091605;28;20047;-52
2022/01/21 09:11:30;;;;;;;10.48;2.58;;;;;;;5.21;100.00;103429.81;5091593;28;20089;-53
2022/01/21 09:13:57;;;;;;;24.15;2.80;;;;;;;5.26;100.00;103412.56;5073183;28;20028;-54
2022/01/21 09:16:23;;;;;;;19.60;2.58;;;;;;;5.32;100.00;103411.84;5073449;28;20091;-55
2022/01/21 09:18:51;;;;;;;11.15;2.38;;;;;;;4.92;100.00;103344.50;5073088;28;20119;-53
2022/01/21 09:21:19;;;;;;;13.88;2.72;;;;;;;4.95;100.00;103332.44;5091529;28;20067;-55
2022/01/21 09:23:48;;;;;;;12.45;2.55;;;;;;;5.45;100.00;103422.75;5091410;28;20032;-54
2022/01/21 09:26:15;;;;;;;14.80;2.95;;;;;;;5.56;100.00;103416.09;5091218;28;20368;-53
2022/01/21 09:28:41;;;;;;;27.60;6.85;;;;;;;5.66;100.00;103423.34;5073311;28;20115;-51
2022/01/21 09:31:06;;;;;;;13.95;2.17;;;;;;;5.78;100.00;103424.56;5091403;28;20139;-47
2022/01/21 09:33:31;;;;;;;11.45;2.85;;;;;;;5.87;100.00;103416.97;5091306;28;20081;-49
2022/01/21 09:35:57;;;;;;;9.80;1.60;;;;;;;5.48;100.00;103354.03;5091418;28;20059;-49
2022/01/21 09:38:24;;;;;;;6.70;1.50;;;;;;;5.89;100.00;103431.00;5091205;28;20034;-49
2022/01/21 09:40:50;;;;;;;6.65;1.38;;;;;;;5.93;100.00;103445.91;5073252;28;20131;-50
2022/01/21 09:43:17;;;;;;;9.35;1.60;;;;;;;5.97;100.00;103424.25;5091049;28;20530;-49
2022/01/21 09:45:47;;;;;;;6.93;1.50;;;;;;;5.87;100.00;103406.53;5091190;28;20472;-49
2022/01/21 09:48:20;;;;;;;5.60;1.30;;;;;;;5.57;100.00;103362.13;5073241;28;20032;-48
2022/01/21 09:50:47;;;;;;;11.60;1.83;;;;;;;5.50;100.00;103336.66;5091170;28;20286;-51
2022/01/21 09:53:12;;;;;;;7.53;1.63;;;;;;;5.65;100.00;103351.03;5091086;28;20079;-51
2022/01/21 09:55:38;;;;;;;12.60;2.13;;;;;;;6.22;100.00;103439.75;5072649;28;20479;-50
2022/01/21 09:58:03;;;;;;;8.25;1.50;;;;;;;5.94;100.00;103364.91;5072875;28;20088;-48
2022/01/21 10:00:29;;;;;;;13.20;2.03;;;;;;;6.43;100.00;103436.81;5072663;28;20135;-51
2022/01/21 10:02:57;;;;;;;12.95;1.65;;;;;;;6.33;100.00;103422.63;5072960;28;20560;-49
2022/01/21 10:05:22;;;;;;;10.85;1.75;;;;;;;6.41;100.00;103443.75;5073281;28;20081;-50
2022/01/21 10:07:49;;;;;;;17.50;4.07;;;;;;;6.33;100.00;103446.16;5091041;28;20032;-50
2022/01/21 10:10:15;;;;;;;10.25;2.30;;;;;;;6.37;100.00;103442.75;5072728;28;20043;-51
2022/01/21 10:12:44;;;;;;;13.23;3.13;;;;;;;6.06;100.00;103365.25;5091172;28;20479;-49
2022/01/21 10:15:10;;;;;;;11.15;1.98;;;;;;;6.61;100.00;103446.03;5090629;28;20491;-49
2022/01/21 10:17:37;;;;;;;11.00;1.90;;;;;;;6.45;100.00;103372.34;5090781;28;20480;-49
2022/01/21 10:20:21;;;;;;;8.95;2.10;;;;;;;6.97;100.00;103461.75;5090816;28;20158;-50
2022/01/21 10:23:05;;;;;;;11.65;2.03;;;;;;;6.49;100.00;103384.63;5072453;28;20392;-49
2022/01/21 10:25:32;;;;;;;15.38;2.30;;;;;;;6.91;100.00;103465.94;5090902;28;20060;-48
2022/01/21 10:28:27;;;;;;;19.70;2.10;;;;;;;6.82;100.00;103469.22;5090878;28;20031;-48
2022/01/21 10:31:05;;;;;;;10.85;1.80;;;;;;;6.83;100.00;103465.75;5070791;28;20135;-49
2022/01/21 10:33:30;;;;;;;8.52;1.70;;;;;;;6.28;100.00;103369.28;5094666;28;20028;-47
2022/01/21 10:36:27;;;;;;;6.18;2.55;;;;;;;6.75;100.00;103457.72;5094613;28;20089;-50
2022/01/21 10:39:09;;;;;;;14.52;2.20;;;;;;;6.79;100.00;103453.44;5060522;28;20383;-48
2022/01/21 10:41:35;;;;;;;11.48;2.55;;;;;;;6.34;100.00;103371.16;5094240;28;20039;-49
2022/01/21 10:44:12;;;;;;;9.75;1.75;;;;;;;6.43;100.00;103401.06;5075809;28;20032;-50
2022/01/21 10:46:40;;;;;;;15.85;2.28;;;;;;;6.41;100.00;103374.00;5076009;28;20030;-50
2022/01/21 10:49:13;;;;;;;15.65;2.35;;;;;;;6.45;100.00;103381.03;5076027;28;20028;-48
2022/01/21 10:51:50;;;;;;;14.93;2.47;;;;;;;6.55;100.00;103387.41;5075429;28;20036;-48
2022/01/21 10:54:20;;;;;;;18.30;3.03;;;;;;;6.63;100.00;103378.88;5075930;28;20032;-51
2022/01/21 10:57:05;;;;;;;12.45;1.77;;;;;;;7.21;100.00;103453.56;5094021;28;20089;-49
2022/01/21 10:59:52;;;;;;;12.05;2.03;;;;;;;7.25;100.00;103458.03;5075312;28;20402;-49
2022/01/21 11:02:50;;;;;;;18.33;2.50;;;;;;;7.31;100.00;103445.06;5093751;28;20028;-51
2022/01/21 11:05:29;;;;;;;10.98;1.67;;;;;;;7.27;100.00;103459.84;5076424;28;20125;-49
2022/01/21 11:08:02;;;;;;;7.80;1.67;;;;;;;7.21;100.00;103451.81;5075517;28;20028;-50
2022/01/21 11:10:37;;;;;;;13.95;2.70;;;;;;;7.14;100.00;103447.31;5076351;28;20123;-50
2022/01/21 11:13:23;;;;;;;10.70;1.80;;;;;;;7.12;100.00;103443.75;5093656;28;20441;-50
2022/01/21 11:15:55;;;;;;;10.80;2.03;;;;;;;7.33;100.00;103448.59;5093340;28;20028;-51
2022/01/21 11:18:22;;;;;;;13.10;2.72;;;;;;;7.63;100.00;103453.63;5093606;28;20032;-51
2022/01/21 11:20:50;;;;;;;16.02;2.47;;;;;;;7.77;100.00;103446.94;5075503;28;20028;-49
2022/01/21 11:23:17;;;;;;;12.82;2.17;;;;;;;7.69;100.00;103461.63;5093223;28;20055;-48
2022/01/21 11:25:56;;;;;;;17.08;2.83;;;;;;;7.61;100.00;103453.63;5093616;28;20036;-52
2022/01/21 11:28:36;;;;;;;13.23;2.35;;;;;;;7.47;100.00;103468.16;5075893;28;20028;-49
2022/01/21 11:31:02;;;;;;;11.55;2.03;;;;;;;7.56;100.00;103457.84;5093409;28;20127;-49
2022/01/21 11:33:27;;;;;;;14.88;2.55;;;;;;;7.49;100.00;103470.81;5093043;28;20116;-48
2022/01/21 11:35:53;;;;;;;10.23;2.50;;;;;;;7.09;100.00;103446.31;5092974;28;20429;-49
2022/01/21 11:38:20;;;;;;;16.90;4.03;;;;;;;6.69;100.00;103412.16;5093136;28;20043;-49
2022/01/21 11:40:48;;;;;;;14.48;2.40;;;;;;;6.83;100.00;103475.34;5074871;28;20062;-49
2022/01/21 11:43:13;;;;;;;19.80;3.15;;;;;;;6.93;100.00;103456.38;5074878;28;20031;-50
2022/01/21 11:50:42;;;;;;;11.98;3.35;;;;;;;6.99;100.00;103449.56;5075680;28;20044;-51
2022/01/21 11:53:07;;;;;;;21.45;3.72;;;;;;;6.97;100.00;103432.94;5092781;28;20028;-52
2022/01/21 11:55:39;;;;;;;18.33;2.85;;;;;;;6.63;100.00;103363.19;5058200;28;20085;-49
2022/01/21 11:58:11;;;;;;;16.88;2.85;;;;;;;7.03;100.00;103440.06;5074221;28;20038;-50
2022/01/21 12:00:36;;;;;;;15.32;2.88;;;;;;;6.62;100.00;103371.91;5073865;28;20055;-48
2022/01/21 12:03:02;;;;;;;21.58;3.25;;;;;;;6.46;100.00;103342.69;5092563;28;20032;-49
2022/01/21 12:05:27;;;;;;;15.43;3.28;;;;;;;6.95;100.00;103437.25;5074482;28;20116;-49
2022/01/21 12:07:53;;;;;;;17.42;2.90;;;;;;;6.88;100.00;103437.06;5092619;28;20035;-52
2022/01/21 12:10:21;;;;;;;16.20;2.63;;;;;;;6.80;100.00;103427.28;5092201;28;20085;-50
2022/01/21 12:13:00;;;;;;;23.48;3.60;;;;;;;6.89;100.00;103436.25;5074183;28;20050;-52